createdAt,value
2023-05-08T00:02:01.353Z,79.83
2023-05-08T00:04:27.814Z,80.49
2023-05-08T00:06:54.261Z,80.94
2023-05-08T00:09:20.970Z,80.31
2023-05-08T00:11:47.407Z,80.95
2023-05-08T00:14:13.986Z,80.99
2023-05-08T00:16:40.478Z,80.79
2023-05-08T00:19:07.334Z,80.82
2023-05-08T00:21:33.928Z,81.17
2023-05-08T00:24:00.908Z,81.38
2023-05-08T00:26:27.397Z,81.59
2023-05-08T00:28:53.824Z,82.32
2023-05-08T00:31:20.356Z,81.90
2023-05-08T00:33:46.783Z,81.87
2023-05-08T00:36:15.609Z,82.83
2023-05-08T00:38:42.107Z,82.34
2023-05-08T00:41:08.937Z,82.01
2023-05-08T00:43:35.804Z,82.47
2023-05-08T00:46:02.868Z,82.55
2023-05-08T00:48:31.964Z,82.99
2023-05-08T00:51:00.046Z,83.73
2023-05-08T00:53:28.428Z,82.77
2023-05-08T00:55:55.123Z,83.46
2023-05-08T00:58:24.609Z,82.95
2023-05-08T01:00:54.202Z,83.56
2023-05-08T01:03:21.103Z,83.29
2023-05-08T01:05:48.422Z,83.17
2023-05-08T01:08:14.968Z,83.48
2023-05-08T01:10:54.958Z,83.72
2023-05-08T01:13:31.904Z,83.94
2023-05-08T01:16:08.565Z,84.07
2023-05-08T01:18:41.442Z,83.89
2023-05-08T01:21:45.874Z,84.32
2023-05-08T01:24:42.461Z,83.79
2023-05-08T01:27:40.878Z,82.77
2023-05-08T01:30:20.967Z,83.57
2023-05-08T01:32:56.823Z,84.40
2023-05-08T01:35:32.677Z,84.32
2023-05-08T01:38:22.556Z,84.46
2023-05-08T01:40:54.479Z,84.49
2023-05-08T01:43:38.439Z,84.62
2023-05-08T01:46:09.819Z,83.92
2023-05-08T01:48:42.397Z,84.76
2023-05-08T01:51:16.953Z,83.62
2023-05-08T01:53:51.143Z,83.90
2023-05-08T01:56:22.131Z,84.29
2023-05-08T01:58:54.248Z,84.37
2023-05-08T02:01:24.114Z,84.40
2023-05-08T02:03:52.385Z,84.09
2023-05-08T02:06:21.964Z,83.81
2023-05-08T02:08:50.267Z,83.68
2023-05-08T02:11:18.544Z,83.48
2023-05-08T02:13:48.438Z,84.72
2023-05-08T02:16:15.630Z,84.67
2023-05-08T02:18:53.134Z,84.99
2023-05-08T02:21:21.657Z,84.23
2023-05-08T02:23:50.135Z,83.76
2023-05-08T02:26:17.129Z,83.23
2023-05-08T02:28:44.275Z,84.16
2023-05-08T02:31:12.424Z,83.42
2023-05-08T02:33:41.565Z,84.60
2023-05-08T02:36:10.793Z,83.95
2023-05-08T02:38:38.747Z,84.29
2023-05-08T02:41:06.542Z,84.18
2023-05-08T02:43:33.348Z,84.59
2023-05-08T02:46:12.561Z,84.20
2023-05-08T02:48:47.876Z,85.28
2023-05-08T02:51:43.858Z,84.47
2023-05-08T02:54:21.741Z,84.32
2023-05-08T02:57:08.631Z,84.46
2023-05-08T02:59:50.744Z,85.47
2023-05-08T03:02:28.774Z,85.19
2023-05-08T03:04:59.416Z,85.73
2023-05-08T03:07:29.785Z,85.38
2023-05-08T03:10:05.197Z,84.92
2023-05-08T03:12:36.172Z,84.97
2023-05-08T03:15:06.586Z,85.75
2023-05-08T03:17:37.808Z,84.94
2023-05-08T03:20:07.118Z,85.35
2023-05-08T03:22:36.937Z,85.87
2023-05-08T03:25:06.852Z,84.80
2023-05-08T03:27:36.814Z,85.36
2023-05-08T03:30:06.069Z,84.65
2023-05-08T03:32:35.485Z,84.47
2023-05-08T03:35:03.834Z,85.07
2023-05-08T03:37:30.974Z,84.65
2023-05-08T03:39:57.852Z,85.09
2023-05-08T03:42:25.282Z,85.60
2023-05-08T03:44:52.934Z,84.96
2023-05-08T03:47:26.030Z,84.39
2023-05-08T03:49:52.894Z,84.39
2023-05-08T03:52:19.464Z,84.46
2023-05-08T03:54:46.685Z,84.85
2023-05-08T03:57:13.706Z,85.50
2023-05-08T04:00:13.892Z,84.03
2023-05-08T04:02:42.165Z,84.47
2023-05-08T04:05:28.133Z,84.73
2023-05-08T04:08:15.485Z,84.56
2023-05-08T04:11:04.162Z,84.70
2023-05-08T04:13:36.914Z,84.48
2023-05-08T04:16:17.242Z,84.68
2023-05-08T04:18:47.908Z,84.42
2023-05-08T04:21:20.347Z,84.23
2023-05-08T04:23:50.682Z,83.50
2023-05-08T04:26:18.937Z,84.68
2023-05-08T04:28:48.808Z,84.11
2023-05-08T04:31:19.532Z,83.93
2023-05-08T04:33:46.895Z,84.07
2023-05-08T04:36:14.540Z,84.28
2023-05-08T04:38:43.638Z,84.22
2023-05-08T04:41:11.256Z,84.61
2023-05-08T04:43:38.462Z,84.62
2023-05-08T04:46:06.959Z,83.68
2023-05-08T04:48:34.020Z,83.75
2023-05-08T04:51:01.161Z,83.62
2023-05-08T04:53:28.042Z,84.62
2023-05-08T04:55:54.512Z,84.26
2023-05-08T04:58:21.012Z,84.31
2023-05-08T05:00:48.941Z,83.96
2023-05-08T05:03:15.631Z,85.30
2023-05-08T05:05:42.784Z,84.34
2023-05-08T05:08:09.518Z,84.77
2023-05-08T05:10:37.730Z,84.63
2023-05-08T05:13:04.387Z,83.84
2023-05-08T05:15:32.128Z,84.25
2023-05-08T05:17:58.906Z,83.61
2023-05-08T05:20:26.256Z,83.57
2023-05-08T05:22:53.260Z,83.37
2023-05-08T05:25:19.856Z,82.97
2023-05-08T05:27:47.113Z,83.80
2023-05-08T05:30:14.057Z,83.86
2023-05-08T05:32:40.809Z,83.75
2023-05-08T05:35:08.072Z,83.18
2023-05-08T05:37:34.717Z,84.15
2023-05-08T05:40:01.376Z,83.51
2023-05-08T05:42:30.094Z,83.78
2023-05-08T05:44:59.572Z,84.22
2023-05-08T05:47:26.764Z,83.74
2023-05-08T05:49:53.205Z,83.04
2023-05-08T05:52:19.662Z,81.69
2023-05-08T05:54:46.598Z,81.38
2023-05-08T05:57:13.898Z,81.50
2023-05-08T05:59:41.177Z,81.07
2023-05-08T06:02:10.250Z,80.91
2023-05-08T06:04:37.879Z,80.34
2023-05-08T06:07:06.678Z,79.36
2023-05-08T06:09:33.181Z,79.43
2023-05-08T06:11:59.600Z,79.80
2023-05-08T06:14:26.258Z,78.83
2023-05-08T06:16:53.009Z,78.97
2023-05-08T06:19:19.496Z,78.46
2023-05-08T06:21:46.271Z,78.52
2023-05-08T06:24:12.674Z,78.35
2023-05-08T06:26:39.130Z,78.51
2023-05-08T06:29:05.533Z,78.48
2023-05-08T06:31:32.101Z,77.98
2023-05-08T06:33:58.606Z,77.56
2023-05-08T06:36:25.005Z,78.49
2023-05-08T06:38:51.408Z,76.83
2023-05-08T06:41:17.821Z,77.15
2023-05-08T06:43:44.300Z,76.30
2023-05-08T06:46:10.771Z,76.74
2023-05-08T06:48:37.182Z,76.49
2023-05-08T06:51:04.435Z,75.93
2023-05-08T06:53:31.311Z,75.68
2023-05-08T06:56:00.699Z,75.07
2023-05-08T06:58:27.139Z,75.28
2023-05-08T07:00:53.544Z,75.76
2023-05-08T07:03:19.938Z,74.44
2023-05-08T07:05:46.371Z,74.28
2023-05-08T07:08:12.744Z,73.58
2023-05-08T07:10:39.265Z,73.75
2023-05-08T07:13:05.951Z,73.57
2023-05-08T07:15:32.746Z,72.79
2023-05-08T07:17:59.284Z,71.53
2023-05-08T07:20:26.493Z,71.56
2023-05-08T07:22:52.961Z,71.68
2023-05-08T07:25:19.982Z,71.05
2023-05-08T07:27:46.460Z,69.15
2023-05-08T07:30:13.213Z,68.79
2023-05-08T07:32:39.858Z,68.85
2023-05-08T07:35:10.844Z,67.38
2023-05-08T07:37:38.575Z,66.03
2023-05-08T07:40:05.555Z,66.46
2023-05-08T07:42:38.629Z,65.67
2023-05-08T07:45:05.481Z,64.63
2023-05-08T07:47:32.349Z,63.80
2023-05-08T07:49:58.817Z,63.51
2023-05-08T07:52:25.278Z,63.12
2023-05-08T07:54:51.803Z,62.89
2023-05-08T07:57:18.231Z,63.19
2023-05-08T07:59:44.678Z,63.46
2023-05-08T08:02:11.180Z,62.74
2023-05-08T08:04:37.853Z,61.99
2023-05-08T08:07:04.634Z,62.29
2023-05-08T08:09:32.171Z,62.05
2023-05-08T08:11:58.604Z,62.33
2023-05-08T08:14:27.408Z,62.12
2023-05-08T08:16:53.870Z,62.45
2023-05-08T08:19:20.304Z,61.47
2023-05-08T08:21:46.768Z,61.27
2023-05-08T08:24:13.476Z,61.66
2023-05-08T08:26:39.924Z,61.02
2023-05-08T08:29:06.727Z,61.95
2023-05-08T08:31:33.402Z,61.49
2023-05-08T08:33:59.914Z,61.23
2023-05-08T08:36:26.316Z,60.64
2023-05-08T08:38:53.472Z,59.86
2023-05-08T08:41:19.852Z,60.30
2023-05-08T08:43:47.386Z,59.26
2023-05-08T08:46:15.288Z,59.12
2023-05-08T08:48:47.361Z,58.63
2023-05-08T08:51:33.061Z,58.95
2023-05-08T08:54:12.153Z,58.22
2023-05-08T08:56:42.931Z,58.32
2023-05-08T08:59:11.889Z,57.23
2023-05-08T09:01:40.736Z,57.87
2023-05-08T09:04:07.435Z,58.78
2023-05-08T09:06:36.683Z,57.96
2023-05-08T09:09:04.100Z,57.43
2023-05-08T09:11:31.224Z,57.34
2023-05-08T09:13:58.367Z,56.19
2023-05-08T09:16:25.558Z,56.18
2023-05-08T09:18:52.023Z,56.26
2023-05-08T09:21:18.479Z,56.28
2023-05-08T09:24:03.451Z,56.60
2023-05-08T09:26:34.496Z,56.01
2023-05-08T09:29:15.299Z,56.48
2023-05-08T09:31:44.314Z,55.55
2023-05-08T09:34:21.547Z,55.63
2023-05-08T09:36:48.093Z,55.21
2023-05-08T09:39:25.250Z,54.41
2023-05-08T09:42:03.171Z,54.25
2023-05-08T09:44:44.184Z,54.55
2023-05-08T09:47:12.754Z,53.99
2023-05-08T09:49:40.540Z,53.14
2023-05-08T09:52:08.284Z,53.81
2023-05-08T09:54:35.040Z,52.92
2023-05-08T09:57:11.979Z,52.98
2023-05-08T09:59:38.499Z,53.14
2023-05-08T10:02:12.715Z,52.98
2023-05-08T10:04:39.207Z,52.86
2023-05-08T10:07:05.785Z,53.21
2023-05-08T10:09:46.946Z,52.80
2023-05-08T10:12:16.487Z,51.96
2023-05-08T10:14:45.563Z,52.19
2023-05-08T10:17:16.093Z,51.64
2023-05-08T10:19:45.859Z,51.34
2023-05-08T10:22:15.519Z,51.65
2023-05-08T10:24:44.172Z,51.13
2023-05-08T10:27:20.807Z,51.32
2023-05-08T10:29:54.873Z,50.78
2023-05-08T10:32:23.649Z,51.33
2023-05-08T10:34:53.585Z,50.12
2023-05-08T10:37:20.270Z,49.97
2023-05-08T10:39:48.073Z,49.26
2023-05-08T10:42:15.044Z,49.76
2023-05-08T10:44:41.425Z,49.61
2023-05-08T10:47:24.354Z,49.38
2023-05-08T10:50:09.382Z,48.60
2023-05-08T10:52:43.911Z,48.56
2023-05-08T10:55:25.202Z,48.42
2023-05-08T10:58:10.078Z,48.01
2023-05-08T11:00:51.750Z,47.89
2023-05-08T11:03:31.441Z,47.69
2023-05-08T11:06:01.182Z,48.22
2023-05-08T11:08:28.956Z,46.48
2023-05-08T11:10:58.432Z,46.63
2023-05-08T11:13:30.742Z,47.26
2023-05-08T11:15:57.455Z,47.04
2023-05-08T11:18:30.177Z,47.08
2023-05-08T11:21:15.250Z,45.60
2023-05-08T11:23:41.725Z,45.67
2023-05-08T11:26:11.327Z,45.22
2023-05-08T11:28:40.562Z,45.07
2023-05-08T11:31:08.510Z,45.23
2023-05-08T11:33:41.098Z,46.44
2023-05-08T11:36:22.918Z,45.07
2023-05-08T11:39:25.000Z,43.47
2023-05-08T11:41:51.394Z,44.47
2023-05-08T11:44:20.679Z,44.63
2023-05-08T11:46:55.373Z,43.97
2023-05-08T11:49:27.116Z,44.70
2023-05-08T11:51:58.687Z,45.29
2023-05-08T11:54:25.826Z,44.46
2023-05-08T11:56:57.016Z,43.83
2023-05-08T11:59:23.468Z,44.05
2023-05-08T12:02:06.680Z,44.17
2023-05-08T12:04:42.900Z,44.22
2023-05-08T12:07:09.370Z,43.76
2023-05-08T12:09:38.096Z,44.28
2023-05-08T12:12:04.745Z,44.76
2023-05-08T12:14:31.391Z,45.14
2023-05-08T12:16:57.812Z,45.40
2023-05-08T12:19:24.296Z,45.47
2023-05-08T12:21:51.311Z,44.68
2023-05-08T12:24:23.250Z,44.80
2023-05-08T12:26:53.012Z,44.66
2023-05-08T12:29:19.719Z,44.10
2023-05-08T12:31:47.282Z,44.36
2023-05-08T12:34:13.945Z,45.16
2023-05-08T12:36:40.325Z,44.86
2023-05-08T12:39:17.324Z,43.84
2023-05-08T12:41:51.679Z,44.44
2023-05-08T12:44:25.974Z,43.82
2023-05-08T12:46:54.352Z,42.91
2023-05-08T12:49:25.120Z,43.25
2023-05-08T12:51:52.724Z,42.42
2023-05-08T12:54:19.204Z,43.32
2023-05-08T12:56:45.683Z,43.27
2023-05-08T12:59:12.152Z,43.05
2023-05-08T13:01:38.881Z,43.09
2023-05-08T13:04:07.807Z,43.19
2023-05-08T13:06:34.839Z,42.57
2023-05-08T13:09:01.351Z,43.14
2023-05-08T13:11:30.775Z,43.52
2023-05-08T13:13:57.357Z,43.13
2023-05-08T13:16:24.017Z,42.43
2023-05-08T13:18:50.424Z,41.93
2023-05-08T13:21:16.841Z,42.30
2023-05-08T13:23:43.394Z,42.64
2023-05-08T13:26:10.049Z,42.15
2023-05-08T13:28:36.543Z,42.51
2023-05-08T13:31:03.057Z,41.78
2023-05-08T13:33:29.633Z,41.96
2023-05-08T13:35:56.172Z,42.99
2023-05-08T13:38:22.563Z,42.24
2023-05-08T13:40:48.980Z,41.78
2023-05-08T13:43:15.489Z,42.43
2023-05-08T13:45:42.179Z,41.61
2023-05-08T13:48:09.037Z,41.82
2023-05-08T13:50:35.603Z,42.00
2023-05-08T13:53:02.434Z,41.70
2023-05-08T13:55:29.068Z,41.04
2023-05-08T13:57:57.782Z,41.04
2023-05-08T14:00:26.017Z,41.66
2023-05-08T14:02:54.440Z,40.97
2023-05-08T14:05:20.934Z,40.74
2023-05-08T14:07:47.369Z,40.46
2023-05-08T14:10:13.811Z,40.77
2023-05-08T14:12:40.452Z,41.17
2023-05-08T14:15:07.756Z,40.76
2023-05-08T14:17:34.394Z,40.84
2023-05-08T14:20:00.953Z,41.29
2023-05-08T14:22:27.354Z,40.71
2023-05-08T14:24:54.092Z,41.05
2023-05-08T14:27:20.739Z,41.43
2023-05-08T14:29:47.476Z,41.25
2023-05-08T14:32:13.896Z,41.26
2023-05-08T14:34:40.391Z,41.91
2023-05-08T14:37:06.770Z,41.57
2023-05-08T14:39:33.514Z,41.53
2023-05-08T14:42:21.396Z,42.01
2023-05-08T14:44:48.132Z,41.69
2023-05-08T14:47:14.571Z,41.21
2023-05-08T14:49:41.030Z,41.76
2023-05-08T14:52:07.584Z,41.33
2023-05-08T14:54:34.773Z,40.74
2023-05-08T14:57:01.355Z,41.56
2023-05-08T14:59:27.776Z,42.37
2023-05-08T15:01:54.240Z,41.14
2023-05-08T15:04:20.849Z,41.07
2023-05-08T15:06:47.329Z,41.06
2023-05-08T15:09:13.783Z,41.50
2023-05-08T15:11:40.363Z,41.04
2023-05-08T15:14:07.062Z,41.26
2023-05-08T15:16:33.927Z,41.72
2023-05-08T15:19:00.350Z,41.90
2023-05-08T15:21:27.351Z,41.99
2023-05-08T15:23:55.274Z,41.57
2023-05-08T15:26:22.519Z,41.73
2023-05-08T15:28:49.056Z,41.80
2023-05-08T15:31:15.743Z,41.87
2023-05-08T15:33:44.735Z,42.00
2023-05-08T15:36:12.858Z,41.95
2023-05-08T15:38:40.757Z,42.15
2023-05-08T15:41:07.545Z,42.56
2023-05-08T15:43:34.068Z,43.32
2023-05-08T15:46:00.675Z,42.93
2023-05-08T15:48:27.131Z,43.55
2023-05-08T15:50:53.558Z,43.00
2023-05-08T15:53:20.005Z,42.82
2023-05-08T15:55:46.438Z,42.92
2023-05-08T15:58:12.893Z,43.23
2023-05-08T16:00:44.569Z,43.45
2023-05-08T16:03:11.611Z,42.46
2023-05-08T16:05:39.374Z,42.90
2023-05-08T16:08:06.110Z,43.29
2023-05-08T16:10:32.651Z,42.81
2023-05-08T16:12:59.115Z,42.74
2023-05-08T16:15:26.887Z,42.73
2023-05-08T16:17:53.377Z,43.24
2023-05-08T16:20:20.194Z,43.59
2023-05-08T16:22:46.566Z,42.72
2023-05-08T16:25:13.194Z,42.61
2023-05-08T16:27:40.088Z,42.46
2023-05-08T16:30:07.206Z,43.78
2023-05-08T16:32:34.135Z,43.53
2023-05-08T16:35:02.666Z,43.85
2023-05-08T16:37:29.231Z,43.33
2023-05-08T16:39:55.659Z,43.72
2023-05-08T16:42:22.033Z,43.73
2023-05-08T16:44:48.420Z,44.05
2023-05-08T16:47:14.972Z,44.29
2023-05-08T16:49:41.444Z,43.84
2023-05-08T16:52:07.947Z,44.45
2023-05-08T16:54:34.555Z,44.14
2023-05-08T16:57:01.314Z,44.02
2023-05-08T16:59:27.896Z,44.09
2023-05-08T17:01:54.346Z,44.00
2023-05-08T17:04:20.741Z,44.18
2023-05-08T17:06:47.134Z,44.73
2023-05-08T17:09:13.610Z,45.31
2023-05-08T17:11:40.349Z,44.19
2023-05-08T17:14:06.859Z,44.39
2023-05-08T17:16:33.948Z,44.87
2023-05-08T17:19:00.537Z,45.24
2023-05-08T17:21:27.349Z,44.84
2023-05-08T17:23:53.784Z,44.73
2023-05-08T17:26:21.678Z,45.16
2023-05-08T17:28:48.120Z,44.99
2023-05-08T17:31:15.893Z,44.91
2023-05-08T17:33:42.406Z,45.05
2023-05-08T17:36:09.135Z,45.03
2023-05-08T17:38:41.708Z,45.62
2023-05-08T17:41:08.146Z,45.62
2023-05-08T17:43:35.279Z,45.54
2023-05-08T17:46:01.800Z,45.01
2023-05-08T17:48:28.338Z,45.75
2023-05-08T17:50:54.785Z,45.94
2023-05-08T17:53:21.356Z,45.80
2023-05-08T17:55:48.405Z,45.91
2023-05-08T17:58:14.838Z,46.38
2023-05-08T18:00:41.315Z,46.19
2023-05-08T18:03:07.975Z,46.62
2023-05-08T18:05:34.574Z,46.58
2023-05-08T18:08:01.140Z,46.35
2023-05-08T18:10:27.567Z,46.97
2023-05-08T18:12:54.112Z,46.54
2023-05-08T18:15:20.510Z,47.51
2023-05-08T18:17:47.899Z,47.54
2023-05-08T18:20:14.576Z,48.01
2023-05-08T18:22:41.165Z,47.84
2023-05-08T18:25:08.028Z,47.84
2023-05-08T18:27:34.522Z,48.15
2023-05-08T18:30:01.756Z,48.46
2023-05-08T18:32:29.096Z,49.04
2023-05-08T18:34:56.772Z,48.88
2023-05-08T18:37:23.200Z,48.33
2023-05-08T18:39:50.019Z,48.64
2023-05-08T18:42:16.480Z,48.77
2023-05-08T18:44:42.937Z,48.70
2023-05-08T18:47:09.372Z,48.65
2023-05-08T18:49:36.089Z,49.45
2023-05-08T18:52:02.677Z,49.60
2023-05-08T18:54:29.324Z,49.55
2023-05-08T18:56:55.799Z,49.72
2023-05-08T18:59:22.191Z,49.80
2023-05-08T19:01:50.489Z,49.71
2023-05-08T19:04:16.917Z,49.39
2023-05-08T19:06:43.347Z,49.16
2023-05-08T19:09:09.795Z,49.98
2023-05-08T19:11:36.240Z,50.48
2023-05-08T19:14:04.172Z,50.27
2023-05-08T19:16:30.676Z,50.15
2023-05-08T19:18:57.120Z,50.76
2023-05-08T19:21:23.572Z,50.52
2023-05-08T19:23:50.000Z,50.43
2023-05-08T19:26:16.456Z,50.46
2023-05-08T19:28:42.856Z,50.56
2023-05-08T19:31:09.350Z,50.67
2023-05-08T19:33:35.924Z,51.35
2023-05-08T19:36:02.423Z,50.74
2023-05-08T19:38:28.938Z,51.37
2023-05-08T19:40:57.584Z,51.85
2023-05-08T19:43:27.981Z,51.51
2023-05-08T19:45:55.302Z,51.92
2023-05-08T19:48:21.891Z,51.97
2023-05-08T19:50:48.454Z,51.95
2023-05-08T19:53:14.937Z,52.34
2023-05-08T19:55:41.376Z,52.78
2023-05-08T19:58:07.970Z,52.23
2023-05-08T20:00:34.480Z,52.41
2023-05-08T20:03:01.461Z,52.90
2023-05-08T20:05:27.923Z,52.91
2023-05-08T20:07:54.452Z,52.75
2023-05-08T20:10:20.906Z,53.01
2023-05-08T20:12:47.395Z,53.35
2023-05-08T20:15:13.993Z,53.54
2023-05-08T20:17:40.664Z,52.87
2023-05-08T20:20:07.874Z,53.48
2023-05-08T20:22:34.311Z,54.06
2023-05-08T20:25:03.493Z,54.03
2023-05-08T20:27:31.215Z,54.18
2023-05-08T20:29:57.717Z,54.14
2023-05-08T20:32:24.263Z,54.36
2023-05-08T20:34:50.712Z,53.98
2023-05-08T20:37:17.158Z,53.89
2023-05-08T20:39:43.911Z,54.81
2023-05-08T20:42:10.653Z,54.76
2023-05-08T20:44:37.042Z,54.19
2023-05-08T20:47:03.698Z,54.50
2023-05-08T20:49:30.498Z,54.77
2023-05-08T20:51:56.945Z,55.48
2023-05-08T20:54:23.387Z,55.74
2023-05-08T20:56:49.744Z,55.71
2023-05-08T20:59:16.692Z,55.59
2023-05-08T21:01:43.289Z,56.03
2023-05-08T21:04:09.995Z,55.46
2023-05-08T21:06:36.555Z,55.73
2023-05-08T21:09:04.568Z,56.08
2023-05-08T21:11:33.063Z,56.13
2023-05-08T21:13:59.503Z,56.12
2023-05-08T21:16:26.894Z,56.20
2023-05-08T21:18:55.376Z,56.37
2023-05-08T21:21:23.171Z,56.28
2023-05-08T21:23:49.544Z,56.25
2023-05-08T21:26:15.965Z,56.88
2023-05-08T21:28:42.384Z,56.49
2023-05-08T21:31:08.874Z,56.78
2023-05-08T21:33:35.556Z,56.17
2023-05-08T21:36:01.986Z,56.65
2023-05-08T21:38:28.424Z,56.76
2023-05-08T21:40:55.568Z,56.66
2023-05-08T21:43:21.979Z,56.52
2023-05-08T21:45:48.415Z,56.27
2023-05-08T21:48:14.861Z,56.49
2023-05-08T21:50:41.309Z,57.22
2023-05-08T21:53:07.835Z,56.80
2023-05-08T21:55:34.371Z,57.24
2023-05-08T21:58:00.804Z,57.43
2023-05-08T22:00:27.240Z,56.75
2023-05-08T22:02:53.727Z,57.00
2023-05-08T22:05:20.203Z,57.24
2023-05-08T22:07:47.389Z,57.35
2023-05-08T22:10:13.901Z,57.12
2023-05-08T22:12:40.644Z,57.74
2023-05-08T22:15:14.884Z,57.67
2023-05-08T22:17:49.599Z,58.53
2023-05-08T22:20:16.089Z,58.33
2023-05-08T22:22:42.585Z,59.05
2023-05-08T22:25:09.217Z,58.71
2023-05-08T22:27:35.727Z,58.42
2023-05-08T22:30:02.390Z,58.98
2023-05-08T22:32:29.160Z,59.11
2023-05-08T22:34:55.785Z,58.70
2023-05-08T22:37:22.573Z,59.27
2023-05-08T22:39:49.329Z,59.40
2023-05-08T22:42:16.613Z,59.36
2023-05-08T22:44:44.082Z,59.51
2023-05-08T22:47:11.889Z,59.53
2023-05-08T22:49:40.109Z,59.12
2023-05-08T22:52:07.897Z,59.93
2023-05-08T22:54:34.575Z,59.70
2023-05-08T22:57:01.620Z,59.73
2023-05-08T22:59:28.045Z,59.47
2023-05-08T23:01:54.467Z,59.48
2023-05-08T23:04:21.467Z,59.78
2023-05-08T23:06:48.003Z,59.91
2023-05-08T23:09:14.356Z,60.77
2023-05-08T23:11:40.807Z,60.41
2023-05-08T23:14:07.222Z,59.82
2023-05-08T23:16:34.130Z,60.40
2023-05-08T23:19:00.644Z,59.89
2023-05-08T23:21:27.869Z,60.19
2023-05-08T23:23:54.393Z,59.83
2023-05-08T23:26:20.813Z,60.01
2023-05-08T23:28:47.232Z,60.68
2023-05-08T23:31:13.665Z,61.27
2023-05-08T23:33:40.106Z,60.44
2023-05-08T23:36:07.008Z,60.40
2023-05-08T23:38:34.036Z,60.69
2023-05-08T23:41:01.155Z,60.88
2023-05-08T23:43:28.079Z,60.18
2023-05-08T23:45:54.434Z,61.13
2023-05-08T23:48:21.081Z,61.04
2023-05-08T23:50:48.071Z,61.23
2023-05-08T23:53:15.330Z,60.81
2023-05-08T23:55:41.777Z,61.20
2023-05-08T23:58:08.400Z,61.22
